sensor_id;sensor_type;location;lat;lon;timestamp;temperature;humidity
47845;DHT22;33605;48.822;8.796;2024-01-30T00:01:42;7.50;32.20
47845;DHT22;33605;48.822;8.796;2024-01-30T00:04:08;7.50;32.30
47845;DHT22;33605;48.822;8.796;2024-01-30T00:06:34;7.50;32.40
47845;DHT22;33605;48.822;8.796;2024-01-30T00:08:59;7.40;32.40
47845;DHT22;33605;48.822;8.796;2024-01-30T00:11:25;7.40;32.40
47845;DHT22;33605;48.822;8.796;2024-01-30T00:13:51;7.40;32.50
47845;DHT22;33605;48.822;8.796;2024-01-30T00:16:24;7.30;32.50
47845;DHT22;33605;48.822;8.796;2024-01-30T00:18:50;7.30;32.90
47845;DHT22;33605;48.822;8.796;2024-01-30T00:21:16;7.30;32.80
47845;DHT22;33605;48.822;8.796;2024-01-30T00:23:42;7.30;32.90
47845;DHT22;33605;48.822;8.796;2024-01-30T00:26:08;7.20;32.90
47845;DHT22;33605;48.822;8.796;2024-01-30T00:28:34;7.20;32.90
47845;DHT22;33605;48.822;8.796;2024-01-30T00:30:59;7.20;33.70
47845;DHT22;33605;48.822;8.796;2024-01-30T00:33:25;7.20;33.10
47845;DHT22;33605;48.822;8.796;2024-01-30T00:35:51;7.20;33.10
47845;DHT22;33605;48.822;8.796;2024-01-30T00:38:16;7.20;33.20
47845;DHT22;33605;48.822;8.796;2024-01-30T00:40:45;7.20;33.30
47845;DHT22;33605;48.822;8.796;2024-01-30T00:43:11;7.20;33.40
47845;DHT22;33605;48.822;8.796;2024-01-30T00:45:36;7.20;33.40
47845;DHT22;33605;48.822;8.796;2024-01-30T00:48:02;7.20;33.40
47845;DHT22;33605;48.822;8.796;2024-01-30T00:50:28;7.10;33.30
47845;DHT22;33605;48.822;8.796;2024-01-30T00:52:53;7.10;33.40
47845;DHT22;33605;48.822;8.796;2024-01-30T00:55:19;7.10;33.40
47845;DHT22;33605;48.822;8.796;2024-01-30T00:57:45;7.10;33.30
47845;DHT22;33605;48.822;8.796;2024-01-30T01:00:11;7.10;33.40
47845;DHT22;33605;48.822;8.796;2024-01-30T01:02:38;7.10;33.40
47845;DHT22;33605;48.822;8.796;2024-01-30T01:05:04;7.10;33.50
47845;DHT22;33605;48.822;8.796;2024-01-30T01:07:30;7.00;33.50
47845;DHT22;33605;48.822;8.796;2024-01-30T01:09:56;7.00;33.60
47845;DHT22;33605;48.822;8.796;2024-01-30T01:12:21;7.00;33.60
47845;DHT22;33605;48.822;8.796;2024-01-30T01:14:47;6.90;33.60
47845;DHT22;33605;48.822;8.796;2024-01-30T01:17:13;6.90;33.70
47845;DHT22;33605;48.822;8.796;2024-01-30T01:19:39;6.90;33.70
47845;DHT22;33605;48.822;8.796;2024-01-30T01:22:04;6.90;33.80
47845;DHT22;33605;48.822;8.796;2024-01-30T01:24:33;6.80;33.70
47845;DHT22;33605;48.822;8.796;2024-01-30T01:26:59;6.80;33.80
47845;DHT22;33605;48.822;8.796;2024-01-30T01:29:25;6.80;34.00
47845;DHT22;33605;48.822;8.796;2024-01-30T01:31:57;6.80;34.10
47845;DHT22;33605;48.822;8.796;2024-01-30T01:34:23;6.80;34.10
47845;DHT22;33605;48.822;8.796;2024-01-30T01:36:49;6.80;34.10
47845;DHT22;33605;48.822;8.796;2024-01-30T01:39:15;6.80;34.10
47845;DHT22;33605;48.822;8.796;2024-01-30T01:41:41;6.70;34.00
47845;DHT22;33605;48.822;8.796;2024-01-30T01:44:07;6.70;34.10
47845;DHT22;33605;48.822;8.796;2024-01-30T01:46:34;6.70;34.10
47845;DHT22;33605;48.822;8.796;2024-01-30T01:49:03;6.70;34.20
47845;DHT22;33605;48.822;8.796;2024-01-30T01:51:32;6.60;34.20
47845;DHT22;33605;48.822;8.796;2024-01-30T01:54:03;6.40;33.90
47845;DHT22;33605;48.822;8.796;2024-01-30T01:56:29;6.60;34.10
47845;DHT22;33605;48.822;8.796;2024-01-30T01:59:00;6.60;34.20
47845;DHT22;33605;48.822;8.796;2024-01-30T02:01:29;6.60;34.30
47845;DHT22;33605;48.822;8.796;2024-01-30T02:03:56;6.50;34.20
47845;DHT22;33605;48.822;8.796;2024-01-30T02:06:21;6.60;34.60
47845;DHT22;33605;48.822;8.796;2024-01-30T02:08:48;6.50;34.50
47845;DHT22;33605;48.822;8.796;2024-01-30T02:11:13;6.60;34.60
47845;DHT22;33605;48.822;8.796;2024-01-30T02:13:41;6.50;34.40
47845;DHT22;33605;48.822;8.796;2024-01-30T02:16:06;6.50;34.40
47845;DHT22;33605;48.822;8.796;2024-01-30T02:18:32;6.50;34.30
47845;DHT22;33605;48.822;8.796;2024-01-30T02:20:59;6.50;34.20
47845;DHT22;33605;48.822;8.796;2024-01-30T02:23:28;6.50;34.30
47845;DHT22;33605;48.822;8.796;2024-01-30T02:25:56;6.50;34.30
47845;DHT22;33605;48.822;8.796;2024-01-30T02:28:22;6.50;34.40
47845;DHT22;33605;48.822;8.796;2024-01-30T02:30:47;6.50;34.50
47845;DHT22;33605;48.822;8.796;2024-01-30T02:33:13;6.40;34.40
47845;DHT22;33605;48.822;8.796;2024-01-30T02:35:39;6.40;34.30
47845;DHT22;33605;48.822;8.796;2024-01-30T02:38:05;6.40;34.30
47845;DHT22;33605;48.822;8.796;2024-01-30T02:40:31;6.40;34.30
47845;DHT22;33605;48.822;8.796;2024-01-30T02:42:58;6.30;34.30
47845;DHT22;33605;48.822;8.796;2024-01-30T02:45:24;6.30;34.30
47845;DHT22;33605;48.822;8.796;2024-01-30T02:47:50;6.30;34.30
47845;DHT22;33605;48.822;8.796;2024-01-30T02:50:16;6.30;34.40
47845;DHT22;33605;48.822;8.796;2024-01-30T02:52:41;6.20;34.40
47845;DHT22;33605;48.822;8.796;2024-01-30T02:55:09;6.30;34.50
47845;DHT22;33605;48.822;8.796;2024-01-30T02:57:35;6.20;34.40
47845;DHT22;33605;48.822;8.796;2024-01-30T03:00:01;6.20;34.50
47845;DHT22;33605;48.822;8.796;2024-01-30T03:02:28;6.20;34.50
47845;DHT22;33605;48.822;8.796;2024-01-30T03:04:53;6.20;34.50
47845;DHT22;33605;48.822;8.796;2024-01-30T03:07:19;6.10;34.40
47845;DHT22;33605;48.822;8.796;2024-01-30T03:09:45;6.10;34.50
47845;DHT22;33605;48.822;8.796;2024-01-30T03:12:11;6.10;34.50
47845;DHT22;33605;48.822;8.796;2024-01-30T03:14:36;6.10;34.60
47845;DHT22;33605;48.822;8.796;2024-01-30T03:17:03;6.00;34.60
47845;DHT22;33605;48.822;8.796;2024-01-30T03:19:28;6.00;34.60
47845;DHT22;33605;48.822;8.796;2024-01-30T03:21:54;6.00;34.60
47845;DHT22;33605;48.822;8.796;2024-01-30T03:24:20;6.00;34.70
47845;DHT22;33605;48.822;8.796;2024-01-30T03:26:45;6.00;34.70
47845;DHT22;33605;48.822;8.796;2024-01-30T03:29:11;5.90;34.60
47845;DHT22;33605;48.822;8.796;2024-01-30T03:31:37;6.00;34.80
47845;DHT22;33605;48.822;8.796;2024-01-30T03:34:03;6.00;34.90
47845;DHT22;33605;48.822;8.796;2024-01-30T03:36:28;5.90;34.80
47845;DHT22;33605;48.822;8.796;2024-01-30T03:38:54;5.90;34.90
47845;DHT22;33605;48.822;8.796;2024-01-30T03:41:19;5.90;34.90
47845;DHT22;33605;48.822;8.796;2024-01-30T03:43:46;5.90;35.00
47845;DHT22;33605;48.822;8.796;2024-01-30T03:46:12;5.90;35.20
47845;DHT22;33605;48.822;8.796;2024-01-30T03:48:38;5.90;35.10
47845;DHT22;33605;48.822;8.796;2024-01-30T03:51:05;5.90;35.10
47845;DHT22;33605;48.822;8.796;2024-01-30T03:53:30;5.90;35.10
47845;DHT22;33605;48.822;8.796;2024-01-30T03:55:56;5.80;35.00
47845;DHT22;33605;48.822;8.796;2024-01-30T03:58:22;5.80;35.10
47845;DHT22;33605;48.822;8.796;2024-01-30T04:00:47;5.80;35.10
47845;DHT22;33605;48.822;8.796;2024-01-30T04:03:14;5.80;35.20
47845;DHT22;33605;48.822;8.796;2024-01-30T04:05:44;5.80;35.30
47845;DHT22;33605;48.822;8.796;2024-01-30T04:08:10;5.80;35.40
47845;DHT22;33605;48.822;8.796;2024-01-30T04:10:36;5.80;35.50
47845;DHT22;33605;48.822;8.796;2024-01-30T04:13:01;5.80;35.50
47845;DHT22;33605;48.822;8.796;2024-01-30T04:15:27;5.80;35.40
47845;DHT22;33605;48.822;8.796;2024-01-30T04:17:57;5.70;35.40
47845;DHT22;33605;48.822;8.796;2024-01-30T04:20:24;5.70;35.40
47845;DHT22;33605;48.822;8.796;2024-01-30T04:22:50;5.70;35.40
47845;DHT22;33605;48.822;8.796;2024-01-30T04:25:15;5.70;35.40
47845;DHT22;33605;48.822;8.796;2024-01-30T04:27:41;5.70;35.50
47845;DHT22;33605;48.822;8.796;2024-01-30T04:30:07;5.70;35.60
47845;DHT22;33605;48.822;8.796;2024-01-30T04:32:33;5.70;35.50
47845;DHT22;33605;48.822;8.796;2024-01-30T04:34:58;5.70;35.50
47845;DHT22;33605;48.822;8.796;2024-01-30T04:37:24;5.70;35.50
47845;DHT22;33605;48.822;8.796;2024-01-30T04:39:51;5.70;35.60
47845;DHT22;33605;48.822;8.796;2024-01-30T04:42:17;5.70;35.60
47845;DHT22;33605;48.822;8.796;2024-01-30T04:44:45;5.70;35.60
47845;DHT22;33605;48.822;8.796;2024-01-30T04:47:11;5.70;35.60
47845;DHT22;33605;48.822;8.796;2024-01-30T04:49:40;5.70;35.70
47845;DHT22;33605;48.822;8.796;2024-01-30T04:52:07;5.70;35.80
47845;DHT22;33605;48.822;8.796;2024-01-30T04:54:33;5.70;35.90
47845;DHT22;33605;48.822;8.796;2024-01-30T04:56:59;5.70;35.90
47845;DHT22;33605;48.822;8.796;2024-01-30T04:59:24;5.70;36.00
47845;DHT22;33605;48.822;8.796;2024-01-30T05:01:50;5.70;36.00
47845;DHT22;33605;48.822;8.796;2024-01-30T05:04:16;5.70;35.90
47845;DHT22;33605;48.822;8.796;2024-01-30T05:06:42;5.60;35.70
47845;DHT22;33605;48.822;8.796;2024-01-30T05:09:08;5.60;36.30
47845;DHT22;33605;48.822;8.796;2024-01-30T05:11:41;5.60;35.60
47845;DHT22;33605;48.822;8.796;2024-01-30T05:14:07;5.60;35.60
47845;DHT22;33605;48.822;8.796;2024-01-30T05:16:34;5.60;35.60
47845;DHT22;33605;48.822;8.796;2024-01-30T05:18:59;5.60;35.70
47845;DHT22;33605;48.822;8.796;2024-01-30T05:21:25;5.50;35.70
47845;DHT22;33605;48.822;8.796;2024-01-30T05:23:51;5.50;35.80
47845;DHT22;33605;48.822;8.796;2024-01-30T05:26:17;5.50;35.80
47845;DHT22;33605;48.822;8.796;2024-01-30T05:28:42;5.50;35.80
47845;DHT22;33605;48.822;8.796;2024-01-30T05:31:10;5.50;35.90
47845;DHT22;33605;48.822;8.796;2024-01-30T05:33:35;5.40;36.40
47845;DHT22;33605;48.822;8.796;2024-01-30T05:36:01;5.40;35.90
47845;DHT22;33605;48.822;8.796;2024-01-30T05:38:26;5.40;36.00
47845;DHT22;33605;48.822;8.796;2024-01-30T05:40:52;5.40;36.00
47845;DHT22;33605;48.822;8.796;2024-01-30T05:43:18;5.40;36.00
47845;DHT22;33605;48.822;8.796;2024-01-30T05:45:47;5.40;36.10
47845;DHT22;33605;48.822;8.796;2024-01-30T05:48:12;5.40;36.10
47845;DHT22;33605;48.822;8.796;2024-01-30T05:50:38;5.40;36.10
47845;DHT22;33605;48.822;8.796;2024-01-30T05:53:04;5.40;36.20
47845;DHT22;33605;48.822;8.796;2024-01-30T05:55:29;5.40;36.20
47845;DHT22;33605;48.822;8.796;2024-01-30T05:57:55;5.40;36.20
47845;DHT22;33605;48.822;8.796;2024-01-30T06:00:20;5.40;36.20
47845;DHT22;33605;48.822;8.796;2024-01-30T06:02:46;5.40;36.20
47845;DHT22;33605;48.822;8.796;2024-01-30T06:05:12;5.40;36.20
47845;DHT22;33605;48.822;8.796;2024-01-30T06:07:37;5.40;36.20
47845;DHT22;33605;48.822;8.796;2024-01-30T06:10:03;5.40;36.20
47845;DHT22;33605;48.822;8.796;2024-01-30T06:12:29;5.40;36.20
47845;DHT22;33605;48.822;8.796;2024-01-30T06:14:55;5.40;36.20
47845;DHT22;33605;48.822;8.796;2024-01-30T06:17:23;5.30;36.10
47845;DHT22;33605;48.822;8.796;2024-01-30T06:19:49;5.30;36.20
47845;DHT22;33605;48.822;8.796;2024-01-30T06:22:15;5.30;36.20
47845;DHT22;33605;48.822;8.796;2024-01-30T06:24:42;5.30;36.20
47845;DHT22;33605;48.822;8.796;2024-01-30T06:27:10;5.30;36.20
47845;DHT22;33605;48.822;8.796;2024-01-30T06:29:36;5.30;36.20
47845;DHT22;33605;48.822;8.796;2024-01-30T06:32:02;5.30;36.90
47845;DHT22;33605;48.822;8.796;2024-01-30T06:34:28;5.30;36.30
47845;DHT22;33605;48.822;8.796;2024-01-30T06:36:53;5.30;36.20
47845;DHT22;33605;48.822;8.796;2024-01-30T06:39:19;5.30;36.30
47845;DHT22;33605;48.822;8.796;2024-01-30T06:41:45;5.30;36.30
47845;DHT22;33605;48.822;8.796;2024-01-30T06:44:12;5.30;36.30
47845;DHT22;33605;48.822;8.796;2024-01-30T06:46:38;5.30;36.40
47845;DHT22;33605;48.822;8.796;2024-01-30T06:49:04;5.30;36.30
47845;DHT22;33605;48.822;8.796;2024-01-30T06:51:31;5.30;36.40
47845;DHT22;33605;48.822;8.796;2024-01-30T06:53:56;5.20;36.30
47845;DHT22;33605;48.822;8.796;2024-01-30T06:56:22;5.30;36.40
47845;DHT22;33605;48.822;8.796;2024-01-30T06:58:51;5.30;36.50
47845;DHT22;33605;48.822;8.796;2024-01-30T07:01:16;5.20;36.50
47845;DHT22;33605;48.822;8.796;2024-01-30T07:03:43;5.20;36.40
47845;DHT22;33605;48.822;8.796;2024-01-30T07:06:09;5.20;36.40
47845;DHT22;33605;48.822;8.796;2024-01-30T07:08:36;5.20;36.50
47845;DHT22;33605;48.822;8.796;2024-01-30T07:11:02;5.20;36.50
47845;DHT22;33605;48.822;8.796;2024-01-30T07:13:28;5.30;36.70
47845;DHT22;33605;48.822;8.796;2024-01-30T07:15:54;5.20;36.70
47845;DHT22;33605;48.822;8.796;2024-01-30T07:18:19;5.30;36.70
47845;DHT22;33605;48.822;8.796;2024-01-30T07:20:45;5.20;36.50
47845;DHT22;33605;48.822;8.796;2024-01-30T07:23:15;5.30;36.60
47845;DHT22;33605;48.822;8.796;2024-01-30T07:25:42;5.30;36.60
47845;DHT22;33605;48.822;8.796;2024-01-30T07:28:08;5.30;36.60
47845;DHT22;33605;48.822;8.796;2024-01-30T07:30:43;5.40;36.80
47845;DHT22;33605;48.822;8.796;2024-01-30T07:33:09;5.40;36.90
47845;DHT22;33605;48.822;8.796;2024-01-30T07:35:35;5.40;37.00
47845;DHT22;33605;48.822;8.796;2024-01-30T07:38:01;5.40;37.00
47845;DHT22;33605;48.822;8.796;2024-01-30T07:40:27;5.50;37.20
47845;DHT22;33605;48.822;8.796;2024-01-30T07:42:56;5.50;37.20
47845;DHT22;33605;48.822;8.796;2024-01-30T07:45:21;5.50;37.30
47845;DHT22;33605;48.822;8.796;2024-01-30T07:47:51;5.60;37.40
47845;DHT22;33605;48.822;8.796;2024-01-30T07:50:17;5.70;38.10
47845;DHT22;33605;48.822;8.796;2024-01-30T07:52:43;5.70;37.40
47845;DHT22;33605;48.822;8.796;2024-01-30T07:55:09;5.70;37.40
47845;DHT22;33605;48.822;8.796;2024-01-30T07:57:34;5.80;37.50
47845;DHT22;33605;48.822;8.796;2024-01-30T08:00:01;5.80;37.40
47845;DHT22;33605;48.822;8.796;2024-01-30T08:02:27;5.90;37.60
47845;DHT22;33605;48.822;8.796;2024-01-30T08:04:52;5.90;37.70
47845;DHT22;33605;48.822;8.796;2024-01-30T08:07:18;6.00;37.80
47845;DHT22;33605;48.822;8.796;2024-01-30T08:09:44;6.10;37.90
47845;DHT22;33605;48.822;8.796;2024-01-30T08:12:09;6.10;37.80
47845;DHT22;33605;48.822;8.796;2024-01-30T08:14:35;6.20;37.90
47845;DHT22;33605;48.822;8.796;2024-01-30T08:17:00;6.30;38.00
47845;DHT22;33605;48.822;8.796;2024-01-30T08:19:26;6.40;37.90
47845;DHT22;33605;48.822;8.796;2024-01-30T08:21:52;6.50;37.90
47845;DHT22;33605;48.822;8.796;2024-01-30T08:24:17;6.60;38.00
47845;DHT22;33605;48.822;8.796;2024-01-30T08:26:43;6.70;37.90
47845;DHT22;33605;48.822;8.796;2024-01-30T08:29:08;6.70;37.80
